Flight Briefing for CMB823

Departure Arrival
Patrick Air Force Base (KCOF)
Click to view FAA NOTAMS
Grantley Adams International Airport (TBPB)
Click to view FAA NOTAMS
Departure Time Arrival Time
N/A N/A
Aircraft Distance
B757-200SF 1490nm
Departure METAR Arrival METAR
KCOF 181456Z AUTO 36013G19KT 10SM BKN023 20/18 A3009 RMK AO2 SLP194 T01960175 52015 $ TBPB 181500Z 10017KT 9999 VCSH BKN018 SCT036 27/20 Q1017 NOSIG
Suggested Route
TEDAE VENDS BRRGO BR1L GTK L452 BQN RTE4 COY A555 BG


View recent IFR Routes data
Notes
USTRANSCOM CONTRACT FLIGHT

Charts and Procedures

Charts for KCOF
No chart available
Charts for TBPB
No chart available

Windy.com Weather Map